Time;durP1;ratioP1;P1;durP2;ratioP2;P2;SDS_P1;SDS_P2;PMS_P1;PMS_P2;Temp;Humidity;BMP_temperature;BMP_pressure;BME280_temperature;BME280_humidity;BME280_pressure;Samples;Min_cycle;Max_cycle;Signal;HPM_P1;HPM_P2
2022/11/16 14:39:38;;;;;;;19.38;3.50;;;13.50;65.30;;;;;;5400295;23;20103;-73
2022/11/16 14:42:15;;;;;;;5.88;2.80;;;13.50;65.60;;;;;;5035436;28;20089;-72
2022/11/16 14:44:42;;;;;;;5.47;3.15;;;13.50;65.50;;;;;;5039963;28;20080;-71
2022/11/16 14:47:25;;;;;;;6.57;3.28;;;13.50;65.30;;;;;;5043583;28;20017;-71
2022/11/16 14:49:53;;;;;;;5.97;3.38;;;13.60;65.50;;;;;;5043601;28;20335;-71
2022/11/16 14:52:25;;;;;;;8.63;5.05;;;;;;;;;;5043433;28;20212;-69
2022/11/16 14:54:55;;;;;;;9.70;3.92;;;13.50;66.00;;;;;;5043485;28;20081;-70
2022/11/16 14:57:22;;;;;;;10.77;4.38;;;13.50;66.30;;;;;;5043422;28;20324;-67
2022/11/16 15:00:05;;;;;;;7.63;3.58;;;13.50;66.20;;;;;;5025548;28;20277;-71
2022/11/16 15:02:31;;;;;;;10.23;4.22;;;13.50;66.10;;;;;;5022857;28;20077;-73
2022/11/16 15:04:58;;;;;;;8.75;3.50;;;13.50;65.90;;;;;;5023047;28;20017;-74
2022/11/16 15:07:25;;;;;;;7.22;3.60;;;13.60;65.80;;;;;;5023389;28;20089;-73
2022/11/16 15:09:54;;;;;;;9.57;3.53;;;13.60;65.70;;;;;;5023360;28;20021;-73
2022/11/16 15:12:41;;;;;;;6.30;3.83;;;13.60;65.60;;;;;;5023305;28;20014;-75
2022/11/16 15:15:14;;;;;;;5.72;3.10;;;13.60;65.50;;;;;;5023457;28;20029;-74
2022/11/16 15:17:43;;;;;;;5.90;3.35;;;13.60;65.40;;;;;;5023461;28;20132;-73
2022/11/16 15:20:19;;;;;;;;;;;13.60;65.50;;;;;;5024055;28;20051;-73
2022/11/16 15:22:49;;;;;;;12.57;3.67;;;13.60;65.50;;;;;;5023543;28;20254;-72
2022/11/16 15:25:29;;;;;;;5.32;2.83;;;13.60;65.40;;;;;;5023762;28;20018;-73
2022/11/16 15:28:01;;;;;;;4.53;3.30;;;13.60;65.30;;;;;;5023517;28;20009;-74
2022/11/16 15:30:36;;;;;;;6.00;3.22;;;13.60;65.30;;;;;;5023535;28;20084;-73
2022/11/16 15:33:08;;;;;;;5.72;3.67;;;13.60;65.30;;;;;;5023495;28;20010;-73
2022/11/16 15:35:35;;;;;;;6.70;3.42;;;13.60;65.30;;;;;;5023442;28;20044;-72
2022/11/16 15:38:04;;;;;;;6.25;3.13;;;13.60;65.30;;;;;;5023389;28;20195;-73
2022/11/16 15:40:31;;;;;;;;;;;13.60;65.90;;;;;;5023669;28;20057;-73
2022/11/16 15:43:02;;;;;;;8.23;4.22;;;13.60;65.30;;;;;;5023407;28;19901;-74
2022/11/16 15:45:30;;;;;;;5.72;3.67;;;13.60;65.30;;;;;;5023388;28;20085;-74
2022/11/16 15:47:59;;;;;;;5.00;3.13;;;13.60;65.30;;;;;;5023328;28;20029;-73
2022/11/16 15:50:25;;;;;;;6.65;3.10;;;13.60;65.30;;;;;;5023323;28;20037;-73
2022/11/16 15:52:54;;;;;;;4.15;2.72;;;13.60;65.30;;;;;;5023285;28;20056;-73
2022/11/16 15:55:34;;;;;;;5.47;3.03;;;13.60;65.30;;;;;;5022113;28;20017;-73
2022/11/16 15:58:06;;;;;;;6.63;2.90;;;13.60;65.30;;;;;;5023239;28;20093;-74
2022/11/16 16:00:35;;;;;;;6.15;3.30;;;13.60;65.30;;;;;;5023217;28;20042;-74
2022/11/16 16:03:05;;;;;;;5.60;3.08;;;13.60;65.30;;;;;;5023189;28;20077;-73
2022/11/16 16:05:36;;;;;;;3.95;2.92;;;13.60;65.30;;;;;;5023084;28;20428;-74
2022/11/16 16:08:02;;;;;;;4.43;3.22;;;13.60;65.30;;;;;;5023147;28;20213;-73
2022/11/16 16:10:28;;;;;;;6.43;3.13;;;13.60;65.20;;;;;;5024849;28;20048;-73
2022/11/16 16:12:58;;;;;;;3.92;2.67;;;13.60;65.30;;;;;;5026609;28;20044;-73
2022/11/16 16:15:32;;;;;;;4.57;3.05;;;13.60;65.30;;;;;;5026559;28;20017;-74
2022/11/16 16:18:00;;;;;;;3.97;2.83;;;13.60;65.20;;;;;;5026549;28;20213;-74
2022/11/16 16:20:31;;;;;;;7.75;3.25;;;13.60;65.30;;;;;;5026489;28;20018;-74
2022/11/16 16:23:16;;;;;;;4.90;3.20;;;13.60;65.20;;;;;;5026417;28;20022;-74
2022/11/16 16:25:42;;;;;;;6.57;3.60;;;13.60;65.30;;;;;;5026408;28;20014;-73
2022/11/16 16:28:11;;;;;;;6.32;3.90;;;13.60;65.20;;;;;;5026339;28;20121;-73
2022/11/16 16:30:38;;;;;;;5.07;3.33;;;13.60;65.30;;;;;;5026304;28;20041;-73
2022/11/16 16:33:04;;;;;;;3.10;2.65;;;13.60;65.20;;;;;;5026274;28;20022;-73
2022/11/16 16:35:30;;;;;;;6.53;3.05;;;13.50;65.20;;;;;;5025011;28;20313;-74
2022/11/16 16:38:00;;;;;;;4.72;2.65;;;13.50;65.20;;;;;;5026116;28;20026;-74
2022/11/16 16:40:27;;;;;;;3.05;2.75;;;13.60;65.20;;;;;;5025960;28;20048;-74
2022/11/16 16:42:54;;;;;;;4.03;2.80;;;13.60;65.20;;;;;;5026099;28;20028;-74
2022/11/16 16:45:42;;;;;;;4.82;3.45;;;13.60;65.20;;;;;;5025945;28;20028;-73
2022/11/16 16:48:11;;;;;;;3.38;2.42;;;13.60;65.30;;;;;;5026007;28;20178;-73
2022/11/16 16:50:37;;;;;;;4.60;2.83;;;13.60;65.20;;;;;;5025898;28;20387;-73
2022/11/16 16:53:04;;;;;;;2.70;2.42;;;13.60;65.20;;;;;;5025901;28;20022;-73
2022/11/16 16:55:30;;;;;;;4.05;2.53;;;13.60;65.20;;;;;;5025834;28;20021;-74
2022/11/16 16:57:58;;;;;;;3.60;2.55;;;13.60;65.20;;;;;;5025824;28;20022;-73
2022/11/16 17:00:24;;;;;;;3.08;2.78;;;13.60;65.10;;;;;;5025721;28;20036;-74
2022/11/16 17:02:50;;;;;;;4.25;2.90;;;13.60;65.20;;;;;;5025675;28;20018;-73
2022/11/16 17:05:17;;;;;;;3.47;2.90;;;13.60;65.20;;;;;;5025489;28;20216;-72
2022/11/16 17:07:42;;;;;;;3.13;2.83;;;13.60;65.20;;;;;;5025600;28;20025;-74
2022/11/16 17:10:08;;;;;;;3.47;2.47;;;13.60;65.20;;;;;;5025482;28;20089;-73
2022/11/16 17:12:34;;;;;;;4.07;2.72;;;13.60;65.20;;;;;;5025482;28;20017;-73
2022/11/16 17:15:00;;;;;;;2.80;2.47;;;13.60;65.20;;;;;;5025457;28;20049;-73
2022/11/16 17:17:26;;;;;;;4.53;2.83;;;13.60;65.20;;;;;;5025383;28;20022;-74
2022/11/16 17:19:53;;;;;;;3.88;3.03;;;13.60;65.30;;;;;;5025317;28;20068;-73
2022/11/16 17:22:20;;;;;;;4.43;2.85;;;13.60;65.30;;;;;;5024300;28;20029;-74
2022/11/16 17:24:46;;;;;;;5.90;3.65;;;13.60;65.30;;;;;;5040513;28;20224;-72
2022/11/16 17:27:12;;;;;;;3.10;2.65;;;13.60;65.20;;;;;;5025211;28;20298;-74
2022/11/16 17:29:38;;;;;;;2.92;2.60;;;13.60;65.20;;;;;;5025184;28;20062;-74
2022/11/16 17:32:05;;;;;;;3.22;2.92;;;13.60;65.20;;;;;;5025176;28;20281;-73
2022/11/16 17:34:31;;;;;;;5.45;3.65;;;13.60;65.30;;;;;;5025061;28;20025;-73
2022/11/16 17:36:57;;;;;;;3.92;2.60;;;13.60;65.10;;;;;;5025019;28;20025;-72
2022/11/16 17:39:23;;;;;;;3.15;2.58;;;13.50;65.10;;;;;;5024819;28;20046;-74
2022/11/16 17:41:50;;;;;;;3.85;2.78;;;13.60;65.20;;;;;;5024948;28;20021;-75
2022/11/16 17:44:16;;;;;;;5.03;3.55;;;13.50;65.10;;;;;;5024905;28;20024;-74
2022/11/16 17:46:42;;;;;;;3.45;2.40;;;13.50;65.10;;;;;;5024742;28;20088;-74
2022/11/16 17:49:08;;;;;;;7.03;2.67;;;13.60;65.10;;;;;;5024759;28;20229;-73
2022/11/16 17:51:34;;;;;;;4.88;2.40;;;13.60;65.20;;;;;;5024784;28;20080;-73
2022/11/16 17:54:00;;;;;;;3.55;2.55;;;13.60;65.20;;;;;;5024793;28;20018;-73
2022/11/16 17:56:27;;;;;;;3.20;2.63;;;13.60;65.20;;;;;;5024661;28;20022;-72
2022/11/16 17:58:54;;;;;;;4.75;3.03;;;13.60;65.20;;;;;;5024761;28;20217;-73
2022/11/16 18:01:21;;;;;;;3.72;2.65;;;13.50;65.20;;;;;;5024659;28;20064;-73
2022/11/16 18:03:47;;;;;;;3.75;3.08;;;13.50;65.20;;;;;;5024569;28;20121;-74
2022/11/16 18:06:21;;;;;;;4.63;3.15;;;13.50;65.20;;;;;;5024482;28;20025;-74
2022/11/16 18:08:48;;;;;;;5.75;3.50;;;13.50;65.20;;;;;;5024542;28;20246;-75
2022/11/16 18:11:17;;;;;;;3.63;2.72;;;13.50;65.20;;;;;;5024489;28;20033;-74
2022/11/16 18:13:43;;;;;;;4.45;3.65;;;13.60;65.30;;;;;;5024398;28;20014;-74
2022/11/16 18:16:15;;;;;;;3.70;2.47;;;13.50;65.20;;;;;;5024371;28;20317;-74
2022/11/16 18:18:43;;;;;;;2.72;2.33;;;13.50;65.20;;;;;;5024370;28;20053;-73
2022/11/16 18:21:10;;;;;;;3.83;2.75;;;13.50;65.20;;;;;;5024347;28;20018;-73
2022/11/16 18:23:37;;;;;;;3.72;2.88;;;13.50;65.20;;;;;;5039474;28;20030;-73
2022/11/16 18:26:14;;;;;;;3.75;2.70;;;13.50;65.20;;;;;;5024129;28;20059;-73
2022/11/16 18:28:42;;;;;;;3.17;2.83;;;13.50;65.20;;;;;;5024260;28;20046;-73
2022/11/16 18:31:14;;;;;;;3.33;3.03;;;13.50;65.10;;;;;;5024272;28;20064;-72
2022/11/16 18:33:40;;;;;;;3.13;2.83;;;13.50;65.20;;;;;;5023940;28;20013;-73
2022/11/16 18:36:07;;;;;;;4.50;2.65;;;13.50;65.20;;;;;;5024087;28;20026;-73
2022/11/16 18:38:35;;;;;;;3.03;2.70;;;13.50;65.20;;;;;;5024065;28;20097;-73
2022/11/16 18:41:05;;;;;;;3.42;2.60;;;13.50;65.20;;;;;;5023831;28;20049;-73
2022/11/16 18:43:32;;;;;;;3.90;3.22;;;13.50;65.20;;;;;;5023982;28;20022;-72
2022/11/16 18:45:59;;;;;;;2.83;2.50;;;13.50;65.20;;;;;;5023875;28;20085;-73
2022/11/16 18:48:25;;;;;;;3.58;2.75;;;13.60;65.30;;;;;;5023922;28;20020;-73
2022/11/16 18:50:51;;;;;;;4.40;2.90;;;13.50;65.20;;;;;;5023873;28;20193;-73
2022/11/16 18:53:17;;;;;;;3.78;2.60;;;13.50;65.20;;;;;;5023843;28;20048;-73
2022/11/16 18:55:50;;;;;;;3.67;2.83;;;13.50;65.90;;;;;;5023787;28;20093;-74
2022/11/16 18:58:17;;;;;;;3.72;3.08;;;13.50;65.20;;;;;;5023777;28;20024;-73
2022/11/16 19:00:42;;;;;;;2.10;1.90;;;13.50;65.20;;;;;;5023745;28;20097;-73
2022/11/16 19:03:08;;;;;;;4.88;2.60;;;13.50;65.20;;;;;;5023714;28;20072;-73
2022/11/16 19:05:34;;;;;;;3.42;2.75;;;13.50;65.20;;;;;;5023490;28;20025;-74
2022/11/16 19:08:00;;;;;;;3.47;2.95;;;13.50;65.20;;;;;;5023719;28;20106;-73
2022/11/16 19:10:26;;;;;;;2.50;2.30;;;13.50;65.20;;;;;;5023618;28;20084;-73
2022/11/16 19:12:56;;;;;;;4.20;2.58;;;13.50;65.20;;;;;;5023636;28;20025;-73
2022/11/16 19:15:24;;;;;;;3.42;2.72;;;13.50;65.10;;;;;;5023616;28;20022;-73
2022/11/16 19:17:50;;;;;;;3.30;2.70;;;13.50;65.20;;;;;;5023620;28;20021;-74
2022/11/16 19:20:16;;;;;;;2.97;2.42;;;13.50;65.20;;;;;;5023560;28;20032;-73
2022/11/16 19:22:42;;;;;;;3.65;2.65;;;13.50;65.20;;;;;;5023548;28;20085;-73
2022/11/16 19:25:08;;;;;;;2.55;2.35;;;13.50;65.20;;;;;;5023439;28;20025;-72
2022/11/16 19:27:37;;;;;;;4.18;2.67;;;13.50;65.20;;;;;;5023529;28;20037;-73
2022/11/16 19:30:03;;;;;;;3.22;2.92;;;13.50;65.20;;;;;;5023545;28;20017;-73
2022/11/16 19:32:30;;;;;;;4.53;2.80;;;13.50;65.20;;;;;;5023520;28;20096;-73
2022/11/16 19:34:57;;;;;;;3.33;2.88;;;13.50;65.20;;;;;;5023461;28;20201;-73
2022/11/16 19:37:23;;;;;;;2.75;2.50;;;13.50;65.20;;;;;;5023432;28;20029;-73
2022/11/16 19:39:49;;;;;;;5.03;2.97;;;13.50;65.10;;;;;;5023170;28;20053;-73
2022/11/16 19:42:15;;;;;;;4.03;2.70;;;13.50;65.20;;;;;;5023374;28;20220;-74
2022/11/16 19:44:40;;;;;;;2.90;2.50;;;13.50;65.20;;;;;;5023849;28;20021;-73
2022/11/16 19:47:07;;;;;;;4.03;2.80;;;13.50;65.20;;;;;;5027102;28;20224;-73
2022/11/16 19:49:33;;;;;;;2.38;2.17;;;13.50;65.20;;;;;;5027071;28;20249;-73
2022/11/16 19:51:59;;;;;;;3.22;2.60;;;13.50;65.20;;;;;;5027012;28;20084;-73
2022/11/16 19:54:25;;;;;;;2.90;2.50;;;13.50;65.20;;;;;;5026962;28;20024;-72
2022/11/16 19:56:51;;;;;;;4.82;3.88;;;13.50;65.20;;;;;;5026899;28;20068;-73
2022/11/16 19:59:17;;;;;;;2.80;2.35;;;13.50;65.20;;;;;;5026859;28;20013;-72
2022/11/16 20:01:45;;;;;;;3.28;2.92;;;13.50;65.20;;;;;;5026804;28;20309;-73
2022/11/16 20:04:14;;;;;;;2.92;2.60;;;13.50;65.20;;;;;;5026887;28;20028;-73
2022/11/16 20:06:40;;;;;;;;;;;13.50;65.20;;;;;;5027105;28;20093;-74
2022/11/16 20:09:10;;;;;;;2.63;2.28;;;13.50;65.20;;;;;;5026723;28;19901;-73
2022/11/16 20:11:38;;;;;;;3.40;2.72;;;13.50;65.10;;;;;;5026684;28;20348;-73
2022/11/16 20:14:06;;;;;;;3.42;2.72;;;13.50;65.10;;;;;;5026661;28;20093;-73
2022/11/16 20:16:35;;;;;;;3.07;2.77;;;13.50;65.10;;;;;;5025446;28;20064;-73
2022/11/16 20:19:01;;;;;;;3.05;2.75;;;13.50;65.20;;;;;;5026604;28;20259;-72
2022/11/16 20:21:29;;;;;;;5.32;3.00;;;13.50;65.20;;;;;;5026513;28;20309;-73
2022/11/16 20:23:56;;;;;;;3.97;2.88;;;13.50;65.20;;;;;;5026488;28;20036;-72
2022/11/16 20:26:24;;;;;;;3.53;3.08;;;13.50;65.20;;;;;;5026341;28;20022;-73
2022/11/16 20:28:51;;;;;;;3.40;3.08;;;13.50;65.20;;;;;;5026387;28;20025;-73
2022/11/16 20:31:25;;;;;;;6.13;2.58;;;13.50;65.20;;;;;;5026303;28;20052;-72
2022/11/16 20:33:59;;;;;;;2.90;2.53;;;13.50;65.10;;;;;;5026351;28;20089;-73
2022/11/16 20:36:27;;;;;;;4.05;2.58;;;13.50;65.10;;;;;;5026283;28;20378;-74
2022/11/16 20:38:53;;;;;;;3.43;2.77;;;13.50;65.10;;;;;;5026049;28;20029;-72
2022/11/16 20:41:22;;;;;;;3.38;2.92;;;13.50;65.10;;;;;;5026110;28;20041;-73
2022/11/16 20:43:52;;;;;;;;;;;13.50;65.10;;;;;;5026522;28;20022;-74
2022/11/16 20:46:20;;;;;;;2.85;2.55;;;13.50;65.20;;;;;;5025932;28;19913;-73
2022/11/16 20:48:46;;;;;;;3.60;3.15;;;13.50;65.20;;;;;;5025972;28;20018;-72
2022/11/16 20:51:15;;;;;;;2.70;2.20;;;13.50;65.10;;;;;;5025908;28;20022;-74
2022/11/16 20:53:42;;;;;;;2.63;2.35;;;13.50;65.20;;;;;;5024775;28;20025;-73
2022/11/16 20:56:09;;;;;;;3.50;2.80;;;13.50;65.20;;;;;;5025763;28;20021;-74
2022/11/16 20:58:36;;;;;;;3.03;2.72;;;13.50;65.20;;;;;;5025803;28;20022;-73
2022/11/16 21:01:30;;;;;;;2.55;2.28;;;13.50;65.20;;;;;;5025755;28;20238;-73
2022/11/16 21:03:58;;;;;;;3.50;2.78;;;13.50;65.20;;;;;;5025696;28;20028;-73
2022/11/16 21:06:24;;;;;;;2.80;2.60;;;13.50;65.20;;;;;;5025570;28;20026;-72
2022/11/16 21:08:50;;;;;;;3.20;2.67;;;13.50;65.10;;;;;;5025631;28;20017;-73
2022/11/16 21:11:22;;;;;;;2.83;2.50;;;13.50;65.10;;;;;;5025546;28;20293;-72
2022/11/16 21:16:34;;;;;;;5.63;2.47;;;13.50;65.20;;;;;;5025488;28;20379;-73
2022/11/16 21:19:00;;;;;;;2.80;2.42;;;13.50;65.20;;;;;;5025460;28;20045;-74
2022/11/16 21:21:26;;;;;;;2.55;2.22;;;13.50;65.20;;;;;;5025397;28;20030;-73
2022/11/16 21:23:53;;;;;;;3.58;2.92;;;13.50;65.20;;;;;;5025311;28;20017;-72
2022/11/16 21:26:25;;;;;;;3.55;2.60;;;13.50;65.20;;;;;;5025231;28;20369;-73
2022/11/16 21:28:51;;;;;;;3.58;2.90;;;13.50;65.20;;;;;;5025231;28;20347;-72
2022/11/16 21:31:20;;;;;;;2.90;2.50;;;13.50;65.20;;;;;;5040587;28;20182;-73
2022/11/16 21:33:46;;;;;;;;;;;13.50;65.20;;;;;;5024390;28;20014;-74
2022/11/16 21:36:14;;;;;;;3.70;3.10;;;13.50;65.20;;;;;;5025145;28;19901;-73
2022/11/16 21:38:41;;;;;;;2.97;2.67;;;13.50;65.20;;;;;;5024925;28;20024;-73
2022/11/16 21:41:09;;;;;;;2.50;2.30;;;13.50;65.30;;;;;;5025029;28;20022;-73
2022/11/16 21:43:35;;;;;;;2.40;2.20;;;13.50;65.20;;;;;;5024952;28;20025;-73
2022/11/16 21:46:10;;;;;;;2.78;2.25;;;13.50;65.10;;;;;;5024815;28;20049;-72
2022/11/16 21:48:36;;;;;;;4.43;2.75;;;13.50;65.10;;;;;;5024869;28;20317;-74
2022/11/16 21:51:13;;;;;;;3.58;2.78;;;13.50;65.10;;;;;;5024785;28;20018;-72
2022/11/16 21:53:39;;;;;;;3.10;2.75;;;13.50;65.20;;;;;;5024799;28;20025;-73
2022/11/16 21:56:07;;;;;;;3.58;2.60;;;13.50;65.10;;;;;;5024765;28;20024;-73
2022/11/16 21:58:32;;;;;;;3.55;2.65;;;13.50;65.20;;;;;;5024684;28;20317;-73
2022/11/16 22:01:00;;;;;;;3.00;2.47;;;13.50;65.20;;;;;;5024627;28;20021;-73
2022/11/16 22:03:30;;;;;;;3.95;2.88;;;13.50;65.20;;;;;;5024650;28;20029;-74
2022/11/16 22:08:47;;;;;;;3.92;2.80;;;13.50;65.10;;;;;;5024179;28;20017;-72
2022/11/16 22:11:13;;;;;;;3.05;2.67;;;13.50;65.20;;;;;;5024512;28;20064;-73
2022/11/16 22:13:40;;;;;;;2.97;2.63;;;13.50;65.20;;;;;;5024468;28;20041;-73
2022/11/16 22:16:08;;;;;;;4.25;3.17;;;13.50;65.20;;;;;;5024380;28;20021;-73
2022/11/16 22:18:34;;;;;;;3.38;2.55;;;13.50;65.20;;;;;;5024351;28;20033;-73
2022/11/16 22:21:00;;;;;;;3.55;2.58;;;13.50;65.20;;;;;;5024317;28;20022;-73
2022/11/16 22:23:27;;;;;;;2.88;2.40;;;13.50;65.20;;;;;;5024268;28;20025;-73
2022/11/16 22:25:53;;;;;;;3.33;2.88;;;13.50;65.20;;;;;;5024179;28;20081;-72
2022/11/16 22:28:20;;;;;;;3.22;2.58;;;13.50;65.20;;;;;;5024158;28;20028;-73
2022/11/16 22:30:46;;;;;;;3.58;2.78;;;13.40;65.20;;;;;;5024191;28;20013;-73
2022/11/16 22:33:14;;;;;;;3.15;2.65;;;13.50;65.20;;;;;;5024124;28;20029;-73
2022/11/16 22:35:40;;;;;;;3.53;2.90;;;13.50;65.20;;;;;;5024047;28;20313;-73
2022/11/16 22:38:06;;;;;;;2.90;2.70;;;13.50;65.20;;;;;;5024003;28;20033;-73
2022/11/16 22:40:32;;;;;;;3.08;2.65;;;13.50;65.20;;;;;;5023836;28;20037;-73
2022/11/16 22:42:58;;;;;;;3.17;2.63;;;13.50;65.20;;;;;;5023942;28;20041;-73
2022/11/16 22:45:24;;;;;;;3.22;2.90;;;13.50;65.20;;;;;;5023883;28;20022;-73
2022/11/16 22:47:53;;;;;;;4.68;3.45;;;13.50;65.20;;;;;;5023849;28;20029;-73
2022/11/16 22:50:19;;;;;;;2.97;2.67;;;13.50;65.20;;;;;;5023920;28;20309;-74
2022/11/16 22:52:45;;;;;;;3.08;2.65;;;13.50;65.20;;;;;;5023913;28;20026;-74
2022/11/16 22:55:11;;;;;;;5.25;3.08;;;13.50;65.20;;;;;;5023843;28;20428;-76
2022/11/16 22:57:37;;;;;;;4.15;2.78;;;13.50;65.20;;;;;;5023825;28;20036;-74
2022/11/16 23:00:04;;;;;;;3.92;2.67;;;13.40;65.20;;;;;;5023773;28;20072;-73
2022/11/16 23:02:30;;;;;;;2.95;2.65;;;13.40;65.10;;;;;;5023766;28;20052;-72
2022/11/16 23:04:56;;;;;;;3.63;2.92;;;13.50;65.20;;;;;;5023642;28;20021;-72
2022/11/16 23:07:22;;;;;;;3.38;2.65;;;13.50;65.20;;;;;;5023773;28;20026;-74
2022/11/16 23:09:47;;;;;;;2.83;2.58;;;13.50;65.20;;;;;;5023774;28;20325;-73
2022/11/16 23:17:43;;;;;;;2.60;2.40;;;13.50;65.20;;;;;;5023664;28;20040;-72
2022/11/16 23:28:22;;;;;;;3.25;2.58;;;13.50;65.20;;;;;;5027543;28;20017;-73
2022/11/16 23:30:48;;;;;;;3.08;2.65;;;13.50;65.20;;;;;;5027488;28;20018;-73
2022/11/16 23:33:14;;;;;;;3.25;2.78;;;13.50;65.20;;;;;;5027377;28;20076;-74
2022/11/16 23:35:40;;;;;;;2.67;2.45;;;13.50;65.20;;;;;;5027354;28;20022;-73
2022/11/16 23:38:06;;;;;;;2.83;2.25;;;13.50;65.20;;;;;;5027323;28;20025;-74
2022/11/16 23:40:35;;;;;;;3.58;2.75;;;13.50;65.20;;;;;;5027125;28;20049;-73
2022/11/16 23:45:48;;;;;;;3.83;2.88;;;13.50;65.20;;;;;;5027234;28;20028;-74
2022/11/16 23:48:15;;;;;;;3.13;2.60;;;13.50;65.20;;;;;;5027145;28;20045;-73
2022/11/16 23:50:43;;;;;;;3.97;3.40;;;13.50;65.20;;;;;;5027093;28;20052;-73
2022/11/16 23:53:09;;;;;;;3.17;2.40;;;13.50;65.20;;;;;;5027082;28;20014;-73
2022/11/16 23:55:37;;;;;;;3.45;3.15;;;13.40;65.20;;;;;;5026959;28;20048;-73
2022/11/16 23:58:05;;;;;;;3.22;2.60;;;13.40;65.20;;;;;;5026981;28;20018;-73
